createdAt,value
2022-12-19T00:00:41.079Z,-5.75
2022-12-19T00:03:12.721Z,-5.74
2022-12-19T00:05:44.634Z,-5.79
2022-12-19T00:08:17.744Z,-5.73
2022-12-19T00:10:49.872Z,-5.69
2022-12-19T00:13:24.500Z,-5.67
2022-12-19T00:15:56.059Z,-5.61
2022-12-19T00:18:27.610Z,-5.62
2022-12-19T00:20:59.187Z,-5.59
2022-12-19T00:23:31.071Z,-5.63
2022-12-19T00:26:02.622Z,-5.60
2022-12-19T00:28:34.906Z,-5.55
2022-12-19T00:31:06.462Z,-5.54
2022-12-19T00:33:42.642Z,-5.53
2022-12-19T00:36:15.289Z,-5.50
2022-12-19T00:38:52.951Z,-5.45
2022-12-19T00:41:24.478Z,-5.42
2022-12-19T00:43:56.406Z,-5.40
2022-12-19T00:46:27.981Z,-5.36
2022-12-19T00:48:59.826Z,-5.31
2022-12-19T00:51:31.317Z,-5.39
2022-12-19T00:54:04.298Z,-5.39
2022-12-19T00:56:38.546Z,-5.34
2022-12-19T00:59:10.691Z,-5.33
2022-12-19T01:01:42.777Z,-5.31
2022-12-19T01:04:31.257Z,-5.28
2022-12-19T01:07:05.788Z,-5.26
2022-12-19T01:09:37.696Z,-5.28
2022-12-19T01:12:27.737Z,-5.26
2022-12-19T01:15:04.324Z,-5.25
2022-12-19T01:17:44.328Z,-5.24
2022-12-19T01:20:16.527Z,-5.22
2022-12-19T01:22:49.153Z,-5.28
2022-12-19T01:25:21.035Z,-5.28
2022-12-19T01:27:52.532Z,-5.33
2022-12-19T01:30:24.307Z,-5.32
2022-12-19T01:32:56.136Z,-5.35
2022-12-19T01:35:27.960Z,-5.34
2022-12-19T01:38:08.308Z,-5.32
2022-12-19T01:40:40.724Z,-5.34
2022-12-19T01:43:12.231Z,-5.31
2022-12-19T01:45:46.083Z,-5.24
2022-12-19T01:48:18.320Z,-5.18
2022-12-19T01:50:56.948Z,-5.18
2022-12-19T01:53:33.006Z,-5.22
2022-12-19T01:56:08.043Z,-5.18
2022-12-19T01:58:39.579Z,-5.17
2022-12-19T02:01:11.482Z,-5.11
2022-12-19T02:03:43.029Z,-5.12
2022-12-19T02:06:15.048Z,-5.11
2022-12-19T02:08:46.567Z,-5.06
2022-12-19T02:11:18.494Z,-5.06
2022-12-19T02:13:49.995Z,-5.06
2022-12-19T02:16:22.200Z,-5.02
2022-12-19T02:18:56.478Z,-5.02
2022-12-19T02:21:27.988Z,-5.01
2022-12-19T02:23:59.780Z,-4.99
2022-12-19T02:26:31.296Z,-5.01
2022-12-19T02:29:03.025Z,-5.05
2022-12-19T02:31:34.606Z,-5.06
2022-12-19T02:34:06.530Z,-5.06
2022-12-19T02:36:38.945Z,-5.07
2022-12-19T02:39:12.423Z,-5.06
2022-12-19T02:41:43.979Z,-5.10
2022-12-19T02:44:15.895Z,-5.11
2022-12-19T02:46:47.449Z,-5.13
2022-12-19T02:49:23.947Z,-5.12
2022-12-19T02:52:02.707Z,-5.08
2022-12-19T02:54:34.837Z,-5.11
2022-12-19T02:57:06.384Z,-5.09
2022-12-19T02:59:38.249Z,-5.10
2022-12-19T03:02:09.913Z,-5.13
2022-12-19T03:04:41.897Z,-5.11
2022-12-19T03:07:13.419Z,-5.11
2022-12-19T03:09:45.470Z,-5.07
2022-12-19T03:12:17.739Z,-5.05
2022-12-19T03:14:49.402Z,-5.04
2022-12-19T03:17:20.921Z,-5.03
2022-12-19T03:19:52.820Z,-5.00
2022-12-19T03:22:24.407Z,-5.03
2022-12-19T03:24:56.293Z,-4.94
2022-12-19T03:27:27.808Z,-4.93
2022-12-19T03:29:59.735Z,-4.87
2022-12-19T03:32:31.251Z,-4.90
2022-12-19T03:35:03.103Z,-4.93
2022-12-19T03:37:34.610Z,-4.97
2022-12-19T03:40:06.431Z,-4.94
2022-12-19T03:42:56.752Z,-5.00
2022-12-19T03:45:28.710Z,-4.93
2022-12-19T03:48:00.257Z,-4.93
2022-12-19T03:50:32.075Z,-4.90
2022-12-19T03:53:03.588Z,-4.87
2022-12-19T03:55:35.125Z,-4.89
2022-12-19T03:58:06.688Z,-4.89
2022-12-19T04:00:38.606Z,-4.88
2022-12-19T04:03:10.190Z,-4.87
2022-12-19T04:05:42.070Z,-4.87
2022-12-19T04:08:13.714Z,-4.83
2022-12-19T04:10:45.609Z,-4.87
2022-12-19T04:13:17.152Z,-4.86
2022-12-19T04:15:48.929Z,-4.91
2022-12-19T04:18:20.437Z,-4.89
2022-12-19T04:20:52.371Z,-4.88
2022-12-19T04:23:23.889Z,-4.87
2022-12-19T04:25:55.742Z,-4.85
2022-12-19T04:28:27.249Z,-4.83
2022-12-19T04:30:59.207Z,-4.85
2022-12-19T04:33:30.746Z,-4.82
2022-12-19T04:36:02.646Z,-4.81
2022-12-19T04:38:34.154Z,-4.82
2022-12-19T04:41:06.056Z,-4.79
2022-12-19T04:43:37.607Z,-4.81
2022-12-19T04:46:09.534Z,-4.79
2022-12-19T04:48:41.088Z,-4.81
2022-12-19T04:51:12.925Z,-4.85
2022-12-19T04:53:44.471Z,-4.80
2022-12-19T04:56:16.292Z,-4.82
2022-12-19T04:58:47.802Z,-4.82
2022-12-19T05:01:19.737Z,-4.84
2022-12-19T05:03:55.745Z,-4.87
2022-12-19T05:06:29.526Z,-4.86
2022-12-19T05:09:01.062Z,-4.90
2022-12-19T05:11:32.603Z,-4.89
2022-12-19T05:14:04.125Z,-4.84
2022-12-19T05:16:36.397Z,-4.81
2022-12-19T05:19:07.924Z,-4.84
2022-12-19T05:21:39.473Z,-4.82
2022-12-19T05:24:10.984Z,-4.80
2022-12-19T05:26:42.893Z,-4.80
2022-12-19T05:29:14.446Z,-4.77
2022-12-19T05:31:46.038Z,-4.76
2022-12-19T05:34:17.546Z,-4.72
2022-12-19T05:36:49.485Z,-4.71
2022-12-19T05:39:21.003Z,-4.63
2022-12-19T05:41:52.876Z,-4.64
2022-12-19T05:44:24.389Z,-4.59
2022-12-19T05:46:56.150Z,-4.53
2022-12-19T05:49:27.725Z,-4.53
2022-12-19T05:51:59.747Z,-4.47
2022-12-19T05:54:31.354Z,-4.41
2022-12-19T05:57:02.931Z,-4.37
2022-12-19T05:59:34.485Z,-4.39
2022-12-19T06:02:06.076Z,-4.39
2022-12-19T06:04:37.693Z,-4.31
2022-12-19T06:07:09.206Z,-4.31
2022-12-19T06:09:40.708Z,-4.20
2022-12-19T06:12:12.258Z,-4.11
2022-12-19T06:14:43.789Z,-4.15
2022-12-19T06:17:15.686Z,-4.16
2022-12-19T06:19:47.252Z,-4.13
2022-12-19T06:22:18.769Z,-4.01
2022-12-19T06:24:50.701Z,-4.06
2022-12-19T06:27:22.213Z,-3.96
2022-12-19T06:29:53.713Z,-3.98
2022-12-19T06:32:25.692Z,-3.90
2022-12-19T06:35:04.963Z,-3.96
2022-12-19T06:37:39.534Z,-3.93
2022-12-19T06:40:31.596Z,-3.92
2022-12-19T06:43:03.150Z,-3.86
2022-12-19T06:45:34.934Z,-3.83
2022-12-19T06:48:06.515Z,-3.79
2022-12-19T06:50:38.484Z,-3.80
2022-12-19T06:53:10.027Z,-3.79
2022-12-19T06:55:42.397Z,-3.79
2022-12-19T06:58:13.937Z,-3.70
2022-12-19T07:00:45.978Z,-3.64
2022-12-19T07:03:17.523Z,-3.62
2022-12-19T07:05:49.301Z,-3.56
2022-12-19T07:08:20.823Z,-3.51
2022-12-19T07:10:54.058Z,-3.42
2022-12-19T07:13:25.583Z,-3.43
2022-12-19T07:15:57.519Z,-3.34
2022-12-19T07:18:29.111Z,-3.33
2022-12-19T07:21:01.016Z,-3.30
2022-12-19T07:23:32.523Z,-3.24
2022-12-19T07:26:04.343Z,-3.24
2022-12-19T07:28:35.879Z,-3.27
2022-12-19T07:31:07.760Z,-3.22
2022-12-19T07:33:39.274Z,-3.21
2022-12-19T07:36:11.539Z,-3.17
2022-12-19T07:38:43.063Z,-3.13
2022-12-19T07:41:14.916Z,-2.97
2022-12-19T07:43:47.279Z,-2.93
2022-12-19T07:46:18.827Z,-2.94
2022-12-19T07:48:50.727Z,-2.87
2022-12-19T07:51:22.616Z,-2.80
2022-12-19T07:53:54.115Z,-2.80
2022-12-19T07:56:25.647Z,-2.71
2022-12-19T07:58:57.249Z,-2.59
2022-12-19T08:01:29.872Z,-2.58
2022-12-19T08:04:01.585Z,-2.45
2022-12-19T08:06:37.660Z,-2.44
2022-12-19T08:09:12.305Z,-2.57
2022-12-19T08:11:44.385Z,-2.42
2022-12-19T08:14:15.980Z,-2.51
2022-12-19T08:17:18.642Z,-2.39
2022-12-19T08:19:39.172Z,-2.33
2022-12-19T08:22:10.695Z,-2.29
2022-12-19T08:24:42.501Z,-2.26
2022-12-19T08:27:14.083Z,-2.28
2022-12-19T08:29:45.597Z,-2.19
2022-12-19T08:32:21.299Z,-2.14
2022-12-19T08:34:54.709Z,-1.97
2022-12-19T08:37:26.822Z,-1.87
2022-12-19T08:39:58.346Z,-1.90
2022-12-19T08:42:29.869Z,-1.83
2022-12-19T08:45:01.425Z,-1.88
2022-12-19T08:47:33.292Z,-1.78
2022-12-19T08:50:04.828Z,-1.88
2022-12-19T08:52:36.640Z,-1.74
2022-12-19T08:55:10.034Z,-1.84
2022-12-19T08:57:41.910Z,-1.59
2022-12-19T09:00:13.418Z,-1.66
2022-12-19T09:02:46.448Z,-1.60
2022-12-19T09:06:05.216Z,-1.47
2022-12-19T09:08:10.030Z,-1.61
2022-12-19T09:10:41.593Z,-1.48
2022-12-19T09:13:13.509Z,-1.49
2022-12-19T09:15:45.080Z,-1.43
2022-12-19T09:18:16.733Z,-1.36
2022-12-19T09:20:48.252Z,-1.23
2022-12-19T09:23:19.896Z,-1.23
2022-12-19T09:25:51.395Z,-1.19
2022-12-19T09:28:27.684Z,-1.23
2022-12-19T09:30:59.811Z,-1.05
2022-12-19T09:33:31.468Z,-0.99
2022-12-19T09:36:03.133Z,-0.89
2022-12-19T09:38:36.586Z,-1.04
2022-12-19T09:41:10.154Z,-0.87
2022-12-19T09:43:41.730Z,-0.87
2022-12-19T09:46:13.337Z,-0.88
2022-12-19T09:48:49.343Z,-0.89
2022-12-19T09:51:24.073Z,-0.75
2022-12-19T09:53:55.578Z,-0.74
2022-12-19T09:56:27.484Z,-0.68
2022-12-19T09:58:59.095Z,-0.46
2022-12-19T10:01:30.807Z,-0.66
2022-12-19T10:04:02.534Z,-0.46
2022-12-19T10:07:14.527Z,-0.40
2022-12-19T10:10:19.092Z,-0.21
2022-12-19T10:12:44.449Z,-0.17
2022-12-19T10:15:09.098Z,-0.07
2022-12-19T10:17:41.096Z,0.06
2022-12-19T10:20:12.658Z,-0.16
2022-12-19T10:22:44.880Z,0.19
2022-12-19T10:25:16.404Z,0.03
2022-12-19T10:27:58.399Z,0.08
2022-12-19T10:30:31.783Z,0.14
2022-12-19T10:33:04.020Z,-0.60
2022-12-19T10:35:35.594Z,0.17
2022-12-19T10:38:08.404Z,0.27
2022-12-19T10:40:40.730Z,0.29
2022-12-19T10:43:19.101Z,0.27
2022-12-19T10:45:54.564Z,0.25
2022-12-19T10:48:30.488Z,0.47
2022-12-19T10:51:06.523Z,0.42
2022-12-19T10:53:38.961Z,0.54
2022-12-19T10:56:10.493Z,0.55
2022-12-19T10:58:42.355Z,0.71
2022-12-19T11:01:14.012Z,0.59
2022-12-19T11:03:46.524Z,0.62
2022-12-19T11:06:18.352Z,0.55
2022-12-19T11:08:50.389Z,0.70
2022-12-19T11:14:23.869Z,0.68
2022-12-19T11:19:00.115Z,0.76
2022-12-19T11:24:23.247Z,0.77
2022-12-19T11:29:27.341Z,0.78
2022-12-19T11:29:31.659Z,0.70
2022-12-19T11:29:54.826Z,0.83
2022-12-19T11:30:43.172Z,0.82
2022-12-19T11:34:16.952Z,0.89
2022-12-19T11:36:48.786Z,0.67
2022-12-19T11:39:21.299Z,0.79
2022-12-19T11:41:53.870Z,0.77
2022-12-19T11:44:26.159Z,0.72
2022-12-19T11:46:57.912Z,0.75
2022-12-19T11:49:31.254Z,0.72
2022-12-19T11:52:03.425Z,0.74
2022-12-19T11:54:34.977Z,0.74
2022-12-19T11:57:06.835Z,0.74
2022-12-19T11:59:38.501Z,0.74
2022-12-19T12:02:10.061Z,0.68
2022-12-19T12:04:41.731Z,0.76
2022-12-19T12:07:28.372Z,0.76
2022-12-19T12:14:45.494Z,0.79
2022-12-19T12:20:41.735Z,0.79
2022-12-19T12:27:26.783Z,0.79
2022-12-19T12:31:16.818Z,0.81
2022-12-19T12:31:21.384Z,0.81
2022-12-19T12:31:27.785Z,0.81
2022-12-19T12:31:50.443Z,0.80
2022-12-19T12:31:53.907Z,0.80
2022-12-19T12:35:46.562Z,0.79
2022-12-19T12:37:52.552Z,0.79
2022-12-19T12:38:43.590Z,0.92
2022-12-19T12:41:15.370Z,0.88
2022-12-19T12:43:47.567Z,0.82
2022-12-19T12:46:19.117Z,0.79
2022-12-19T12:48:51.060Z,0.84
2022-12-19T12:51:22.554Z,0.83
2022-12-19T12:53:54.440Z,0.74
2022-12-19T12:56:25.942Z,0.83
2022-12-19T12:58:57.810Z,0.81
2022-12-19T13:01:29.469Z,0.76
2022-12-19T13:04:01.438Z,0.80
2022-12-19T13:06:32.946Z,0.75
2022-12-19T13:09:04.815Z,0.85
2022-12-19T13:11:55.177Z,0.83
2022-12-19T13:14:27.028Z,0.83
2022-12-19T13:16:58.669Z,0.85
2022-12-19T13:19:30.513Z,0.82
2022-12-19T13:22:02.190Z,0.87
2022-12-19T13:24:33.696Z,0.82
2022-12-19T13:27:05.593Z,0.80
2022-12-19T13:29:37.096Z,0.89
2022-12-19T13:32:08.972Z,0.82
2022-12-19T13:34:40.561Z,0.83
2022-12-19T13:39:54.296Z,0.84
2022-12-19T13:40:12.075Z,0.82
2022-12-19T13:43:10.725Z,0.86
2022-12-19T13:45:42.866Z,0.89
2022-12-19T13:48:14.801Z,0.87
2022-12-19T13:50:47.992Z,0.91
2022-12-19T13:53:21.240Z,0.96
2022-12-19T13:55:52.880Z,0.92
2022-12-19T13:58:29.170Z,0.95
2022-12-19T14:01:01.368Z,0.96
2022-12-19T14:03:33.541Z,1.00
2022-12-19T14:06:17.898Z,1.04
2022-12-19T14:10:23.968Z,1.03
2022-12-19T14:12:28.103Z,1.08
2022-12-19T14:15:02.181Z,1.11
2022-12-19T14:17:44.757Z,1.14
2022-12-19T14:20:57.464Z,1.16
2022-12-19T14:23:08.231Z,1.19
2022-12-19T14:28:15.430Z,1.19
2022-12-19T14:28:31.660Z,1.20
2022-12-19T14:31:09.006Z,1.24
2022-12-19T14:34:04.307Z,1.24
2022-12-19T14:36:32.918Z,1.27
2022-12-19T14:39:24.040Z,1.24
2022-12-19T14:42:15.192Z,1.29
2022-12-19T14:52:25.447Z,1.31
2022-12-19T14:54:06.172Z,1.32
2022-12-19T14:54:07.298Z,1.35
2022-12-19T14:54:44.282Z,1.37
2022-12-19T14:59:04.999Z,1.40
2022-12-19T15:01:37.128Z,1.43
2022-12-19T15:04:52.006Z,1.49
2022-12-19T15:07:07.551Z,1.47
2022-12-19T15:11:07.283Z,1.48
2022-12-19T15:14:51.500Z,1.52
2022-12-19T15:15:53.067Z,1.52
2022-12-19T15:18:25.163Z,1.55
2022-12-19T15:20:59.217Z,1.58
2022-12-19T15:23:30.864Z,1.58
2022-12-19T15:26:04.386Z,1.61
2022-12-19T15:28:36.582Z,1.64
2022-12-19T15:31:08.291Z,1.66
2022-12-19T15:33:53.808Z,1.69
2022-12-19T15:36:31.709Z,1.72
2022-12-19T15:39:04.087Z,1.76
2022-12-19T15:41:35.690Z,1.78
2022-12-19T15:44:07.403Z,1.75
2022-12-19T15:46:46.410Z,1.81
2022-12-19T15:49:20.149Z,1.83
2022-12-19T15:51:51.652Z,1.85
2022-12-19T15:54:48.751Z,1.86
2022-12-19T15:57:15.416Z,1.88
2022-12-19T15:59:47.337Z,1.93
2022-12-19T16:02:19.091Z,1.96
2022-12-19T16:04:51.393Z,1.95
2022-12-19T16:07:23.047Z,2.02
2022-12-19T16:09:55.750Z,2.02
2022-12-19T16:12:27.386Z,2.07
2022-12-19T16:14:58.908Z,2.09
2022-12-19T16:17:30.396Z,2.09
2022-12-19T16:20:01.989Z,2.13
2022-12-19T16:22:33.567Z,2.15
2022-12-19T16:25:06.250Z,2.14
2022-12-19T16:27:37.768Z,2.17
2022-12-19T16:30:11.157Z,2.19
2022-12-19T16:32:46.620Z,2.24
2022-12-19T16:35:34.361Z,2.26
2022-12-19T16:38:10.130Z,2.30
2022-12-19T16:40:41.659Z,2.33
2022-12-19T16:43:13.531Z,2.35
2022-12-19T16:45:45.059Z,2.42
2022-12-19T16:48:16.958Z,2.46
2022-12-19T16:50:48.512Z,2.47
2022-12-19T16:53:20.033Z,2.47
2022-12-19T16:55:51.562Z,2.51
2022-12-19T16:58:28.825Z,2.51
2022-12-19T17:01:01.060Z,2.55
2022-12-19T17:03:33.849Z,2.59
2022-12-19T17:06:05.647Z,2.61
2022-12-19T17:08:37.174Z,2.59
2022-12-19T17:11:08.749Z,2.61
2022-12-19T17:13:40.782Z,2.60
2022-12-19T17:16:12.432Z,2.63
2022-12-19T17:18:43.971Z,2.69
2022-12-19T17:21:15.599Z,2.68
2022-12-19T17:23:47.483Z,2.68
2022-12-19T17:26:19.055Z,2.68
2022-12-19T17:28:50.664Z,2.67
2022-12-19T17:31:22.421Z,2.72
2022-12-19T17:33:54.504Z,2.73
2022-12-19T17:36:29.864Z,2.74
2022-12-19T17:39:04.897Z,2.78
2022-12-19T17:41:36.368Z,2.80
2022-12-19T17:44:08.511Z,2.82
2022-12-19T17:46:40.134Z,2.86
2022-12-19T17:49:11.993Z,2.87
2022-12-19T17:51:43.490Z,2.86
2022-12-19T17:54:15.421Z,2.90
2022-12-19T17:56:46.905Z,2.91
2022-12-19T17:59:18.576Z,2.93
2022-12-19T18:01:50.275Z,2.96
2022-12-19T18:04:22.229Z,2.97
2022-12-19T18:06:53.778Z,2.96
2022-12-19T18:09:25.666Z,3.00
2022-12-19T18:11:57.234Z,3.01
2022-12-19T18:14:29.250Z,3.01
2022-12-19T18:17:00.937Z,3.05
2022-12-19T18:19:32.516Z,3.04
2022-12-19T18:22:04.040Z,3.07
2022-12-19T18:24:35.936Z,3.09
2022-12-19T18:27:07.504Z,3.11
2022-12-19T18:29:39.079Z,3.13
2022-12-19T18:32:10.620Z,3.17
2022-12-19T18:34:42.417Z,3.15
2022-12-19T18:37:13.958Z,3.21
2022-12-19T18:39:45.854Z,3.24
2022-12-19T18:42:17.403Z,3.24
2022-12-19T18:44:49.372Z,3.25
2022-12-19T18:47:21.427Z,3.25
2022-12-19T18:49:53.377Z,3.28
2022-12-19T18:52:24.884Z,3.30
2022-12-19T18:54:56.709Z,3.30
2022-12-19T18:57:28.216Z,3.29
2022-12-19T19:00:00.111Z,3.32
2022-12-19T19:02:32.134Z,3.37
2022-12-19T19:05:04.532Z,3.42
2022-12-19T19:07:36.067Z,3.40
2022-12-19T19:10:07.971Z,3.39
2022-12-19T19:12:39.504Z,3.38
2022-12-19T19:15:11.409Z,3.41
2022-12-19T19:17:42.921Z,3.41
2022-12-19T19:20:14.760Z,3.41
2022-12-19T19:22:46.300Z,3.43
2022-12-19T19:25:18.171Z,3.43
2022-12-19T19:27:50.230Z,3.49
2022-12-19T19:30:21.730Z,3.49
2022-12-19T19:32:53.242Z,3.47
2022-12-19T19:35:27.448Z,3.45
2022-12-19T19:37:58.998Z,3.46
2022-12-19T19:40:31.036Z,3.51
2022-12-19T19:43:02.608Z,3.48
2022-12-19T19:45:41.202Z,3.49
2022-12-19T19:48:14.687Z,3.48
2022-12-19T19:50:46.559Z,3.47
2022-12-19T19:53:18.118Z,3.50
2022-12-19T19:55:50.051Z,3.48
2022-12-19T19:58:21.653Z,3.50
2022-12-19T20:00:53.600Z,3.48
2022-12-19T20:03:25.278Z,3.43
2022-12-19T20:05:57.316Z,3.44
2022-12-19T20:08:33.679Z,3.41
2022-12-19T20:11:10.774Z,3.41
2022-12-19T20:13:42.386Z,3.41
2022-12-19T20:16:16.106Z,3.41
2022-12-19T20:18:47.717Z,3.41
2022-12-19T20:21:20.095Z,3.37
2022-12-19T20:23:51.645Z,3.37
2022-12-19T20:26:23.652Z,3.38
2022-12-19T20:28:55.161Z,3.37
2022-12-19T20:31:26.782Z,3.34
2022-12-19T20:33:58.381Z,3.31
2022-12-19T20:36:30.031Z,3.32
2022-12-19T20:39:01.827Z,3.28
2022-12-19T20:41:33.709Z,3.28
2022-12-19T20:44:05.501Z,3.33
2022-12-19T20:46:37.065Z,3.30
2022-12-19T20:49:08.615Z,3.28
2022-12-19T20:51:40.187Z,3.25
2022-12-19T20:54:12.952Z,3.26
2022-12-19T20:56:44.745Z,3.27
2022-12-19T20:59:16.688Z,3.25
2022-12-19T21:01:48.354Z,3.24
2022-12-19T21:04:20.407Z,3.24
2022-12-19T21:06:52.096Z,3.23
2022-12-19T21:09:23.952Z,3.25
2022-12-19T21:11:55.525Z,3.21
2022-12-19T21:14:27.383Z,3.15
2022-12-19T21:16:59.024Z,3.12
2022-12-19T21:19:30.891Z,3.11
2022-12-19T21:22:02.670Z,3.11
2022-12-19T21:24:34.407Z,3.08
2022-12-19T21:27:05.967Z,3.06
2022-12-19T21:29:38.004Z,3.04
2022-12-19T21:32:15.061Z,3.05
2022-12-19T21:34:50.644Z,3.04
2022-12-19T21:37:24.154Z,3.04
2022-12-19T21:39:56.025Z,3.02
2022-12-19T21:42:27.517Z,3.02
2022-12-19T21:44:59.387Z,3.03
2022-12-19T21:47:30.943Z,2.98
2022-12-19T21:50:02.719Z,2.96
2022-12-19T21:52:34.260Z,2.97
2022-12-19T21:55:06.120Z,2.94
2022-12-19T21:57:37.616Z,2.98
2022-12-19T22:00:09.476Z,3.00
2022-12-19T22:02:55.365Z,3.00
2022-12-19T22:05:32.853Z,2.99
2022-12-19T22:08:04.360Z,3.03
2022-12-19T22:10:35.886Z,3.03
2022-12-19T22:13:07.392Z,3.06
2022-12-19T22:15:38.925Z,3.11
2022-12-19T22:18:11.220Z,3.10
2022-12-19T22:20:43.185Z,3.12
2022-12-19T22:23:14.697Z,3.14
2022-12-19T22:25:46.475Z,3.17
2022-12-19T22:28:17.987Z,3.16
2022-12-19T22:30:49.772Z,3.22
2022-12-19T22:33:21.283Z,3.20
2022-12-19T22:35:53.226Z,3.26
2022-12-19T22:38:24.748Z,3.24
2022-12-19T22:40:56.774Z,3.23
2022-12-19T22:43:29.912Z,3.20
2022-12-19T22:46:01.801Z,3.19
2022-12-19T22:48:33.328Z,3.23
2022-12-19T22:51:05.024Z,3.21
2022-12-19T22:53:36.546Z,3.23
2022-12-19T22:56:08.451Z,3.23
2022-12-19T22:58:40.035Z,3.21
2022-12-19T23:01:11.853Z,3.26
2022-12-19T23:03:43.411Z,3.25
2022-12-19T23:06:15.390Z,3.25
2022-12-19T23:08:46.914Z,3.24
2022-12-19T23:11:18.453Z,3.26
2022-12-19T23:13:49.976Z,3.23
2022-12-19T23:16:21.858Z,3.25
2022-12-19T23:18:53.422Z,3.24
2022-12-19T23:21:25.500Z,3.23
2022-12-19T23:23:57.111Z,3.29
2022-12-19T23:26:29.037Z,3.28
2022-12-19T23:29:00.586Z,3.29
2022-12-19T23:31:32.519Z,3.29
2022-12-19T23:34:04.095Z,3.34
2022-12-19T23:37:09.798Z,3.35
2022-12-19T23:39:27.523Z,3.38
2022-12-19T23:41:59.361Z,3.35
2022-12-19T23:44:31.153Z,3.38
2022-12-19T23:47:04.180Z,3.40
2022-12-19T23:49:35.946Z,3.38
2022-12-19T23:52:07.772Z,3.42
2022-12-19T23:54:39.270Z,3.38
2022-12-19T23:57:11.412Z,3.41
2022-12-19T23:59:43.450Z,3.41
